createdAt,value
2022-07-27T00:01:51.623Z,14.90
2022-07-27T00:04:19.972Z,15.00
2022-07-27T00:06:48.306Z,15.00
2022-07-27T00:09:15.710Z,15.00
2022-07-27T00:11:42.872Z,15.00
2022-07-27T00:14:09.769Z,15.00
2022-07-27T00:16:36.877Z,15.00
2022-07-27T00:19:04.141Z,15.00
2022-07-27T00:21:35.514Z,15.00
2022-07-27T00:24:11.461Z,15.00
2022-07-27T00:26:38.352Z,15.00
2022-07-27T00:29:05.211Z,15.00
2022-07-27T00:31:32.171Z,14.90
2022-07-27T00:33:59.063Z,14.90
2022-07-27T00:36:25.923Z,14.90
2022-07-27T00:38:52.844Z,14.90
2022-07-27T00:41:19.994Z,14.90
2022-07-27T00:44:00.437Z,14.80
2022-07-27T00:46:28.819Z,14.90
2022-07-27T00:48:55.933Z,14.80
2022-07-27T00:51:24.613Z,14.80
2022-07-27T00:53:55.876Z,14.80
2022-07-27T00:56:23.549Z,14.70
2022-07-27T00:58:53.707Z,14.70
2022-07-27T01:01:20.901Z,14.70
2022-07-27T01:03:48.129Z,14.70
2022-07-27T01:06:16.147Z,14.60
2022-07-27T01:08:43.373Z,14.50
2022-07-27T01:11:11.564Z,14.50
2022-07-27T01:13:38.872Z,14.40
2022-07-27T01:16:07.233Z,14.30
2022-07-27T01:18:36.436Z,14.20
2022-07-27T01:21:06.283Z,14.20
2022-07-27T01:23:34.134Z,14.10
2022-07-27T01:26:02.130Z,14.10
2022-07-27T01:28:29.039Z,14.00
2022-07-27T01:30:56.444Z,13.90
2022-07-27T01:33:26.065Z,13.90
2022-07-27T01:35:55.269Z,13.90
2022-07-27T01:38:22.923Z,13.80
2022-07-27T01:40:51.268Z,13.80
2022-07-27T01:43:18.233Z,13.80
2022-07-27T01:45:45.097Z,13.80
2022-07-27T01:48:12.075Z,13.80
2022-07-27T01:50:39.384Z,13.80
2022-07-27T01:53:09.238Z,13.70
2022-07-27T01:55:38.845Z,13.70
2022-07-27T01:58:07.433Z,13.60
2022-07-27T02:00:34.894Z,13.60
2022-07-27T02:03:02.843Z,13.50
2022-07-27T02:05:29.835Z,13.60
2022-07-27T02:07:57.123Z,13.60
2022-07-27T02:10:24.105Z,13.60
2022-07-27T02:12:52.166Z,13.60
2022-07-27T02:15:21.828Z,13.60
2022-07-27T02:17:53.307Z,13.60
2022-07-27T02:20:22.823Z,13.60
2022-07-27T02:22:50.733Z,13.60
2022-07-27T02:25:19.261Z,13.60
2022-07-27T02:27:47.305Z,13.60
2022-07-27T02:30:15.120Z,13.60
2022-07-27T02:32:45.081Z,13.70
2022-07-27T02:35:18.650Z,13.60
2022-07-27T02:37:47.784Z,13.70
2022-07-27T02:40:17.547Z,13.70
2022-07-27T02:42:45.428Z,13.70
2022-07-27T02:45:12.457Z,13.70
2022-07-27T02:47:40.185Z,13.70
2022-07-27T02:50:10.290Z,13.80
2022-07-27T02:52:37.690Z,13.80
2022-07-27T02:55:05.677Z,13.80
2022-07-27T02:57:34.496Z,13.80
2022-07-27T03:00:05.488Z,13.90
2022-07-27T03:02:32.424Z,13.80
2022-07-27T03:04:59.309Z,13.80
2022-07-27T03:07:26.179Z,13.80
2022-07-27T03:09:53.107Z,13.80
2022-07-27T03:12:20.007Z,13.80
2022-07-27T03:14:47.093Z,13.80
2022-07-27T03:17:13.999Z,13.80
2022-07-27T03:19:40.868Z,13.80
2022-07-27T03:22:07.864Z,13.80
2022-07-27T03:24:35.017Z,13.90
2022-07-27T03:27:02.170Z,14.00
2022-07-27T03:29:29.554Z,14.00
2022-07-27T03:31:56.650Z,14.00
2022-07-27T03:34:23.743Z,14.10
2022-07-27T03:36:50.663Z,14.00
2022-07-27T03:39:17.608Z,14.10
2022-07-27T03:41:44.577Z,14.10
2022-07-27T03:44:11.591Z,14.10
2022-07-27T03:46:38.460Z,14.10
2022-07-27T03:49:14.158Z,14.10
2022-07-27T03:51:42.207Z,14.10
2022-07-27T03:54:09.102Z,14.20
2022-07-27T03:56:36.248Z,14.20
2022-07-27T03:59:03.304Z,14.20
2022-07-27T04:01:30.405Z,14.20
2022-07-27T04:03:57.405Z,14.30
2022-07-27T04:06:25.684Z,14.30
2022-07-27T04:08:57.528Z,14.30
2022-07-27T04:11:29.037Z,14.20
2022-07-27T04:13:56.603Z,14.30
2022-07-27T04:16:24.341Z,14.30
2022-07-27T04:18:53.473Z,14.30
2022-07-27T04:21:20.561Z,14.30
2022-07-27T04:23:47.482Z,14.30
2022-07-27T04:26:14.415Z,14.30
2022-07-27T04:28:41.816Z,14.30
2022-07-27T04:31:08.767Z,14.40
2022-07-27T04:33:35.725Z,14.30
2022-07-27T04:36:02.670Z,14.40
2022-07-27T04:38:29.569Z,14.30
2022-07-27T04:40:58.505Z,14.30
2022-07-27T04:43:25.577Z,14.30
2022-07-27T04:45:56.976Z,14.30
2022-07-27T04:48:24.092Z,14.30
2022-07-27T04:50:51.014Z,14.40
2022-07-27T04:53:17.979Z,14.40
2022-07-27T04:55:46.523Z,14.50
2022-07-27T04:58:14.858Z,14.60
2022-07-27T05:00:43.528Z,14.60
2022-07-27T05:03:10.981Z,14.60
2022-07-27T05:05:38.587Z,14.60
2022-07-27T05:08:05.911Z,14.70
2022-07-27T05:10:33.711Z,14.70
2022-07-27T05:13:00.563Z,14.70
2022-07-27T05:15:28.809Z,14.60
2022-07-27T05:18:15.913Z,14.60
2022-07-27T05:20:42.853Z,14.70
2022-07-27T05:23:09.841Z,14.80
2022-07-27T05:25:36.759Z,14.90
2022-07-27T05:28:03.765Z,14.80
2022-07-27T05:30:30.732Z,14.80
2022-07-27T05:32:58.341Z,14.80
2022-07-27T05:35:25.222Z,14.70
2022-07-27T05:37:52.105Z,14.70
2022-07-27T05:40:19.084Z,14.70
2022-07-27T05:42:46.009Z,14.70
2022-07-27T05:45:12.979Z,14.80
2022-07-27T05:47:39.949Z,14.80
2022-07-27T05:50:07.678Z,14.80
2022-07-27T05:52:34.846Z,14.70
2022-07-27T05:55:01.850Z,14.60
2022-07-27T05:57:28.958Z,14.50
2022-07-27T05:59:58.272Z,14.40
2022-07-27T06:02:25.667Z,14.40
2022-07-27T06:04:52.976Z,14.40
2022-07-27T06:07:38.974Z,14.40
2022-07-27T06:10:06.522Z,14.50
2022-07-27T06:12:43.224Z,14.50
2022-07-27T06:15:11.020Z,14.50
2022-07-27T06:17:38.243Z,14.60
2022-07-27T06:20:06.549Z,14.60
2022-07-27T06:22:33.656Z,14.50
2022-07-27T06:25:00.503Z,14.60
2022-07-27T06:27:29.702Z,14.70
2022-07-27T06:29:56.836Z,14.90
2022-07-27T06:32:23.764Z,15.00
2022-07-27T06:34:50.959Z,15.00
2022-07-27T06:37:19.568Z,15.00
2022-07-27T06:39:47.223Z,15.00
2022-07-27T06:42:14.622Z,14.90
2022-07-27T06:44:41.620Z,14.80
2022-07-27T06:47:08.557Z,14.80
2022-07-27T06:49:35.543Z,14.80
2022-07-27T06:52:02.609Z,14.90
2022-07-27T06:54:29.763Z,14.90
2022-07-27T06:56:56.643Z,14.90
2022-07-27T06:59:23.602Z,15.00
2022-07-27T07:01:50.512Z,15.00
2022-07-27T07:04:17.825Z,15.10
2022-07-27T07:06:50.810Z,15.30
2022-07-27T07:09:17.692Z,15.70
2022-07-27T07:11:44.554Z,16.00
2022-07-27T07:14:11.417Z,15.90
2022-07-27T07:16:38.335Z,16.10
2022-07-27T07:19:05.728Z,16.20
2022-07-27T07:21:32.659Z,15.80
2022-07-27T07:23:59.511Z,15.80
2022-07-27T07:26:26.368Z,15.90
2022-07-27T07:28:53.273Z,16.00
2022-07-27T07:31:20.492Z,15.90
2022-07-27T07:33:47.615Z,16.00
2022-07-27T07:36:15.080Z,15.90
2022-07-27T07:38:43.468Z,15.80
2022-07-27T07:41:11.224Z,15.70
2022-07-27T07:43:38.858Z,15.60
2022-07-27T07:46:06.317Z,15.70
2022-07-27T07:48:33.388Z,15.80
2022-07-27T07:51:00.392Z,15.90
2022-07-27T07:53:27.252Z,15.90
2022-07-27T07:55:58.602Z,15.90
2022-07-27T07:58:25.715Z,15.90
2022-07-27T08:00:52.784Z,16.10
2022-07-27T08:03:20.178Z,16.20
2022-07-27T08:05:47.385Z,16.20
2022-07-27T08:08:14.267Z,16.20
2022-07-27T08:10:41.160Z,16.30
2022-07-27T08:13:08.821Z,16.40
2022-07-27T08:15:36.633Z,16.40
2022-07-27T08:18:05.447Z,16.30
2022-07-27T08:20:32.630Z,16.30
2022-07-27T08:22:59.593Z,16.10
2022-07-27T08:25:26.449Z,16.10
2022-07-27T08:27:53.354Z,16.20
2022-07-27T08:30:23.181Z,16.40
2022-07-27T08:33:01.427Z,16.60
2022-07-27T08:35:29.301Z,16.70
2022-07-27T08:37:56.299Z,17.00
2022-07-27T08:40:42.883Z,17.00
2022-07-27T08:43:12.891Z,16.80
2022-07-27T08:45:41.800Z,16.50
2022-07-27T08:48:13.869Z,16.60
2022-07-27T08:50:42.827Z,16.70
2022-07-27T08:53:12.735Z,16.80
2022-07-27T08:55:42.367Z,16.70
2022-07-27T08:58:10.039Z,16.90
2022-07-27T09:00:40.248Z,16.90
2022-07-27T09:03:07.490Z,16.90
2022-07-27T09:05:42.406Z,16.70
2022-07-27T09:08:18.571Z,16.70
2022-07-27T09:10:45.504Z,16.50
2022-07-27T09:13:29.380Z,16.70
2022-07-27T09:16:19.341Z,16.80
2022-07-27T09:18:48.337Z,17.20
2022-07-27T09:21:22.364Z,17.80
2022-07-27T09:23:50.776Z,18.20
2022-07-27T09:26:33.361Z,19.20
2022-07-27T09:29:08.836Z,19.60
2022-07-27T09:31:46.843Z,19.60
2022-07-27T09:34:28.364Z,19.50
2022-07-27T09:36:57.771Z,19.60
2022-07-27T09:39:26.678Z,20.00
2022-07-27T09:42:00.182Z,20.40
2022-07-27T09:44:43.857Z,19.90
2022-07-27T09:47:27.175Z,19.80
2022-07-27T09:50:15.498Z,20.40
2022-07-27T09:52:42.460Z,20.50
2022-07-27T09:55:10.777Z,21.10
2022-07-27T09:57:57.671Z,21.70
2022-07-27T10:00:26.011Z,21.80
2022-07-27T10:02:55.033Z,21.30
2022-07-27T10:05:23.017Z,21.10
2022-07-27T10:07:52.230Z,20.90
2022-07-27T10:10:19.216Z,20.60
2022-07-27T10:12:51.897Z,20.50
2022-07-27T10:15:21.822Z,20.20
2022-07-27T10:17:57.946Z,19.80
2022-07-27T10:20:24.927Z,19.50
2022-07-27T10:22:54.360Z,19.50
2022-07-27T10:25:25.827Z,19.90
2022-07-27T10:28:12.273Z,20.00
2022-07-27T10:30:39.485Z,20.20
2022-07-27T10:33:44.729Z,20.30
2022-07-27T10:36:24.757Z,20.20
2022-07-27T10:38:57.462Z,20.50
2022-07-27T10:41:28.714Z,21.10
2022-07-27T10:44:17.685Z,21.60
2022-07-27T10:46:46.704Z,23.00
2022-07-27T10:49:22.247Z,24.50
2022-07-27T10:51:51.202Z,24.90
2022-07-27T10:54:45.738Z,24.40
2022-07-27T10:57:27.033Z,22.90
2022-07-27T11:00:13.607Z,22.50
2022-07-27T11:02:42.919Z,21.90
2022-07-27T11:05:57.974Z,21.70
2022-07-27T11:08:47.390Z,21.10
2022-07-27T11:10:48.292Z,20.80
2022-07-27T11:13:20.122Z,20.40
2022-07-27T11:16:09.772Z,20.00
2022-07-27T11:18:53.125Z,19.90
2022-07-27T11:21:26.757Z,19.80
2022-07-27T11:23:57.232Z,19.90
2022-07-27T11:26:29.085Z,20.30
2022-07-27T11:28:56.347Z,20.40
2022-07-27T11:31:38.680Z,20.40
2022-07-27T11:34:11.817Z,20.60
2022-07-27T11:36:45.748Z,21.00
2022-07-27T11:39:28.600Z,21.20
2022-07-27T11:42:09.081Z,21.10
2022-07-27T11:44:40.897Z,20.80
2022-07-27T11:47:08.803Z,20.50
2022-07-27T11:49:35.810Z,20.50
2022-07-27T11:52:07.256Z,20.60
2022-07-27T11:54:39.914Z,20.40
2022-07-27T11:57:22.737Z,20.00
2022-07-27T11:59:49.694Z,20.30
2022-07-27T12:02:23.131Z,20.50
2022-07-27T12:04:52.038Z,20.30
2022-07-27T12:07:22.171Z,20.10
2022-07-27T12:09:49.057Z,20.30
2022-07-27T12:12:20.799Z,20.70
2022-07-27T12:15:11.817Z,20.90
2022-07-27T12:17:55.775Z,20.60
2022-07-27T12:20:31.353Z,20.10
2022-07-27T12:23:05.172Z,19.70
2022-07-27T12:25:33.445Z,19.20
2022-07-27T12:28:14.144Z,18.80
2022-07-27T12:30:45.045Z,18.70
2022-07-27T12:33:32.449Z,18.60
2022-07-27T12:36:00.422Z,18.40
2022-07-27T12:38:41.455Z,18.50
2022-07-27T12:41:08.357Z,18.80
2022-07-27T12:43:35.386Z,19.10
2022-07-27T12:46:12.308Z,19.40
2022-07-27T12:48:41.565Z,19.10
2022-07-27T12:51:09.856Z,18.90
2022-07-27T12:53:38.091Z,19.00
2022-07-27T12:56:10.249Z,19.10
2022-07-27T12:58:37.770Z,19.70
2022-07-27T13:01:05.957Z,20.20
2022-07-27T13:03:33.224Z,20.20
2022-07-27T13:06:05.850Z,20.70
2022-07-27T13:08:37.634Z,21.60
2022-07-27T13:11:04.602Z,22.60
2022-07-27T13:13:31.532Z,22.60
2022-07-27T13:15:58.432Z,22.70
2022-07-27T13:18:25.542Z,22.40
2022-07-27T13:20:52.804Z,22.10
2022-07-27T13:23:20.289Z,21.80
2022-07-27T13:25:47.225Z,21.80
2022-07-27T13:28:14.193Z,21.50
2022-07-27T13:30:41.119Z,20.80
2022-07-27T13:33:08.628Z,20.50
2022-07-27T13:35:35.644Z,20.80
2022-07-27T13:38:02.748Z,21.00
2022-07-27T13:40:29.620Z,21.70
2022-07-27T13:42:56.527Z,22.40
2022-07-27T13:45:23.613Z,22.60
2022-07-27T13:47:50.504Z,22.50
2022-07-27T13:50:19.509Z,22.50
2022-07-27T13:52:50.077Z,22.20
2022-07-27T13:55:18.058Z,22.50
2022-07-27T13:57:46.855Z,22.80
2022-07-27T14:00:15.238Z,22.50
2022-07-27T14:02:42.997Z,22.60
2022-07-27T14:05:13.070Z,22.70
2022-07-27T14:07:41.936Z,23.30
2022-07-27T14:10:30.711Z,22.60
2022-07-27T14:13:07.846Z,22.30
2022-07-27T14:15:54.528Z,22.90
2022-07-27T14:18:30.535Z,23.00
2022-07-27T14:20:59.324Z,23.50
2022-07-27T14:23:27.263Z,23.40
2022-07-27T14:25:55.614Z,22.60
2022-07-27T14:28:23.335Z,22.40
2022-07-27T14:30:51.874Z,22.30
2022-07-27T14:33:18.927Z,22.20
2022-07-27T14:35:46.498Z,21.70
2022-07-27T14:38:13.611Z,21.60
2022-07-27T14:40:52.192Z,21.40
2022-07-27T14:43:19.489Z,21.50
2022-07-27T14:45:47.524Z,21.20
2022-07-27T14:48:23.066Z,21.50
2022-07-27T14:50:55.448Z,21.60
2022-07-27T14:53:22.516Z,21.20
2022-07-27T14:55:49.538Z,20.70
2022-07-27T14:58:16.434Z,20.60
2022-07-27T15:00:43.666Z,20.40
2022-07-27T15:03:14.657Z,20.30
2022-07-27T15:05:50.149Z,19.90
2022-07-27T15:08:21.459Z,19.80
2022-07-27T15:10:49.277Z,19.50
2022-07-27T15:13:17.181Z,19.50
2022-07-27T15:15:44.392Z,19.80
2022-07-27T15:18:11.317Z,20.00
2022-07-27T15:20:38.279Z,20.40
2022-07-27T15:23:06.644Z,20.80
2022-07-27T15:25:33.982Z,20.80
2022-07-27T15:28:00.894Z,20.90
2022-07-27T15:30:27.944Z,21.10
2022-07-27T15:32:54.824Z,21.20
2022-07-27T15:35:21.803Z,21.30
2022-07-27T15:37:54.616Z,21.10
2022-07-27T15:40:37.784Z,21.00
2022-07-27T15:43:06.251Z,21.20
2022-07-27T15:45:38.308Z,21.20
2022-07-27T15:48:06.967Z,20.50
2022-07-27T15:50:34.331Z,20.10
2022-07-27T15:53:01.720Z,19.60
2022-07-27T15:55:28.579Z,19.50
2022-07-27T15:57:55.466Z,19.50
2022-07-27T16:00:22.354Z,19.60
2022-07-27T16:02:52.554Z,19.50
2022-07-27T16:05:20.689Z,19.50
2022-07-27T16:07:47.657Z,19.60
2022-07-27T16:10:14.534Z,19.60
2022-07-27T16:12:41.411Z,19.30
2022-07-27T16:15:08.784Z,19.10
2022-07-27T16:17:35.792Z,19.10
2022-07-27T16:20:03.412Z,19.10
2022-07-27T16:22:31.999Z,18.90
2022-07-27T16:24:59.694Z,18.80
2022-07-27T16:27:28.585Z,18.80
2022-07-27T16:29:55.689Z,18.50
2022-07-27T16:32:22.882Z,18.40
2022-07-27T16:34:49.756Z,18.20
2022-07-27T16:37:17.327Z,18.20
2022-07-27T16:39:44.693Z,18.00
2022-07-27T16:42:11.588Z,17.90
2022-07-27T16:44:40.199Z,17.90
2022-07-27T16:47:07.505Z,17.90
2022-07-27T16:49:36.882Z,17.80
2022-07-27T16:52:05.315Z,17.80
2022-07-27T16:54:35.620Z,17.90
2022-07-27T16:57:05.776Z,17.90
2022-07-27T16:59:32.773Z,17.80
2022-07-27T17:01:59.684Z,17.70
2022-07-27T17:04:28.004Z,17.50
2022-07-27T17:06:55.103Z,17.40
2022-07-27T17:09:22.009Z,17.40
2022-07-27T17:11:49.581Z,17.40
2022-07-27T17:14:16.927Z,17.20
2022-07-27T17:16:50.289Z,17.20
2022-07-27T17:19:19.662Z,17.00
2022-07-27T17:21:46.597Z,16.90
2022-07-27T17:24:13.651Z,16.80
2022-07-27T17:26:40.748Z,16.80
2022-07-27T17:29:07.598Z,16.70
2022-07-27T17:31:34.543Z,16.70
2022-07-27T17:34:01.639Z,16.70
2022-07-27T17:36:28.571Z,16.80
2022-07-27T17:38:55.686Z,16.80
2022-07-27T17:41:24.925Z,16.80
2022-07-27T17:43:53.722Z,16.90
2022-07-27T17:46:21.160Z,16.80
2022-07-27T17:48:48.194Z,16.80
2022-07-27T17:51:15.223Z,16.80
2022-07-27T17:53:42.224Z,16.70
2022-07-27T17:56:09.428Z,16.70
2022-07-27T17:58:36.984Z,16.70
2022-07-27T18:01:05.389Z,16.80
2022-07-27T18:03:32.812Z,16.80
2022-07-27T18:06:01.550Z,16.80
2022-07-27T18:08:28.472Z,16.80
2022-07-27T18:10:55.663Z,16.70
2022-07-27T18:13:22.620Z,16.60
2022-07-27T18:15:52.428Z,16.40
2022-07-27T18:18:25.257Z,16.40
2022-07-27T18:20:54.883Z,16.10
2022-07-27T18:23:25.798Z,16.00
2022-07-27T18:25:53.123Z,16.00
2022-07-27T18:28:21.271Z,15.90
2022-07-27T18:30:50.084Z,15.80
2022-07-27T18:33:17.980Z,15.70
2022-07-27T18:35:45.952Z,15.60
2022-07-27T18:38:14.062Z,15.60
2022-07-27T18:40:43.161Z,15.50
2022-07-27T18:43:13.067Z,15.40
2022-07-27T18:45:40.810Z,15.40
2022-07-27T18:48:10.162Z,15.40
2022-07-27T18:50:40.912Z,15.30
2022-07-27T18:53:08.887Z,15.30
2022-07-27T18:55:36.426Z,15.20
2022-07-27T18:58:03.621Z,15.20
2022-07-27T19:00:33.650Z,15.20
2022-07-27T19:03:01.046Z,15.10
2022-07-27T19:05:40.713Z,15.10
2022-07-27T19:08:13.348Z,15.00
2022-07-27T19:10:44.527Z,14.90
2022-07-27T19:13:12.460Z,14.90
2022-07-27T19:15:40.141Z,14.80
2022-07-27T19:18:07.993Z,14.70
2022-07-27T19:20:36.812Z,14.60
2022-07-27T19:23:05.390Z,14.60
2022-07-27T19:25:33.805Z,14.60
2022-07-27T19:28:01.375Z,14.40
2022-07-27T19:30:28.576Z,14.30
2022-07-27T19:32:56.451Z,14.30
2022-07-27T19:35:23.767Z,14.20
2022-07-27T19:37:50.732Z,14.10
2022-07-27T19:40:43.390Z,14.00
2022-07-27T19:43:05.960Z,13.90
2022-07-27T19:45:33.660Z,13.90
2022-07-27T19:48:04.855Z,13.80
2022-07-27T19:50:31.848Z,13.70
2022-07-27T19:52:58.737Z,13.70
2022-07-27T19:55:25.775Z,13.60
2022-07-27T19:57:52.781Z,13.50
2022-07-27T20:00:19.741Z,13.50
2022-07-27T20:02:47.890Z,13.40
2022-07-27T20:05:15.135Z,13.30
2022-07-27T20:07:43.352Z,13.30
2022-07-27T20:10:10.514Z,13.20
2022-07-27T20:12:37.711Z,13.10
2022-07-27T20:15:06.811Z,13.10
2022-07-27T20:17:37.136Z,13.10
2022-07-27T20:20:08.306Z,13.00
2022-07-27T20:22:35.472Z,12.90
2022-07-27T20:25:02.802Z,12.90
2022-07-27T20:27:29.737Z,12.80
2022-07-27T20:29:56.632Z,12.80
2022-07-27T20:32:23.635Z,12.70
2022-07-27T20:34:50.525Z,12.70
2022-07-27T20:37:17.648Z,12.70
2022-07-27T20:39:44.553Z,12.70
2022-07-27T20:42:11.416Z,12.70
2022-07-27T20:44:38.335Z,12.70
2022-07-27T20:47:06.351Z,12.70
2022-07-27T20:49:34.354Z,12.60
2022-07-27T20:52:01.970Z,12.50
2022-07-27T20:54:29.743Z,12.50
2022-07-27T20:56:57.125Z,12.50
2022-07-27T20:59:24.412Z,12.50
2022-07-27T21:01:52.010Z,12.50
2022-07-27T21:04:19.463Z,12.40
2022-07-27T21:06:46.516Z,12.40
2022-07-27T21:09:15.412Z,12.30
2022-07-27T21:11:42.952Z,12.30
2022-07-27T21:14:10.077Z,12.30
2022-07-27T21:16:37.591Z,12.20
2022-07-27T21:19:05.340Z,12.20
2022-07-27T21:21:33.418Z,12.20
2022-07-27T21:24:17.295Z,12.20
2022-07-27T21:26:48.510Z,12.20
2022-07-27T21:29:16.442Z,12.20
2022-07-27T21:31:46.923Z,12.10
2022-07-27T21:34:18.782Z,12.10
2022-07-27T21:36:46.505Z,12.10
2022-07-27T21:39:13.638Z,12.10
2022-07-27T21:41:40.591Z,12.00
2022-07-27T21:44:07.605Z,12.00
2022-07-27T21:46:34.762Z,12.00
2022-07-27T21:49:01.730Z,11.90
2022-07-27T21:51:28.691Z,11.90
2022-07-27T21:53:56.848Z,11.70
2022-07-27T21:56:24.520Z,11.70
2022-07-27T21:58:51.551Z,11.70
2022-07-27T22:01:18.516Z,11.70
2022-07-27T22:03:45.659Z,11.60
2022-07-27T22:06:12.873Z,11.60
2022-07-27T22:08:40.104Z,11.60
2022-07-27T22:11:07.239Z,11.50
2022-07-27T22:13:34.613Z,11.40
2022-07-27T22:16:01.691Z,11.30
2022-07-27T22:18:28.950Z,11.30
2022-07-27T22:20:56.603Z,11.20
2022-07-27T22:23:23.879Z,11.30
2022-07-27T22:25:51.124Z,11.30
2022-07-27T22:28:18.057Z,11.20
2022-07-27T22:30:59.952Z,11.20
2022-07-27T22:33:32.763Z,11.20
2022-07-27T22:35:59.693Z,11.20
2022-07-27T22:38:27.920Z,11.10
2022-07-27T22:40:56.140Z,11.00
2022-07-27T22:43:23.264Z,11.00
2022-07-27T22:45:51.969Z,11.00
2022-07-27T22:48:18.972Z,11.00
2022-07-27T22:50:45.943Z,11.00
2022-07-27T22:53:14.973Z,11.00
2022-07-27T22:55:42.290Z,11.00
2022-07-27T22:58:09.441Z,11.00
2022-07-27T23:00:36.464Z,11.00
2022-07-27T23:03:03.636Z,10.90
2022-07-27T23:05:30.695Z,10.90
2022-07-27T23:07:57.612Z,10.90
2022-07-27T23:10:43.289Z,10.80
2022-07-27T23:13:10.237Z,10.80
2022-07-27T23:15:38.062Z,10.80
2022-07-27T23:18:06.064Z,10.60
2022-07-27T23:20:33.158Z,10.60
2022-07-27T23:23:00.395Z,10.60
2022-07-27T23:25:36.174Z,10.50
2022-07-27T23:28:04.245Z,10.50
2022-07-27T23:30:31.313Z,10.50
2022-07-27T23:32:58.187Z,10.50
2022-07-27T23:35:25.152Z,10.60
2022-07-27T23:37:52.105Z,10.50
2022-07-27T23:40:19.042Z,10.50
2022-07-27T23:42:46.268Z,10.40
2022-07-27T23:45:13.245Z,10.40
2022-07-27T23:47:40.341Z,10.40
2022-07-27T23:50:08.821Z,10.30
2022-07-27T23:52:36.123Z,10.30
2022-07-27T23:55:03.720Z,10.30
2022-07-27T23:57:30.749Z,10.30
2022-07-27T23:59:57.689Z,10.20
